createdAt,value
2023-06-27T00:04:57.719Z,50.28
2023-06-27T00:09:59.551Z,50.17
2023-06-27T00:15:01.454Z,51.29
2023-06-27T00:20:03.911Z,50.92
2023-06-27T00:25:05.854Z,51.38
2023-06-27T00:30:08.171Z,51.59
2023-06-27T00:35:09.925Z,50.79
2023-06-27T00:40:11.820Z,49.00
2023-06-27T00:45:13.417Z,49.29
2023-06-27T00:50:14.953Z,50.93
2023-06-27T00:55:16.460Z,52.16
2023-06-27T01:00:18.706Z,50.93
2023-06-27T01:05:20.477Z,51.92
2023-06-27T01:10:29.970Z,50.74
2023-06-27T01:15:31.480Z,50.80
2023-06-27T01:20:33.951Z,50.78
2023-06-27T01:25:39.101Z,49.30
2023-06-27T01:30:41.982Z,48.45
2023-06-27T01:35:56.633Z,49.76
2023-06-27T01:41:00.113Z,50.26
2023-06-27T01:46:01.679Z,49.61
2023-06-27T01:51:09.628Z,49.64
2023-06-27T01:56:11.149Z,51.23
2023-06-27T02:01:12.707Z,51.43
2023-06-27T02:06:16.364Z,52.02
2023-06-27T02:11:17.881Z,54.13
2023-06-27T02:16:19.379Z,54.88
2023-06-27T02:21:20.875Z,54.67
2023-06-27T02:26:22.380Z,54.31
2023-06-27T02:31:24.056Z,55.88
2023-06-27T02:36:28.457Z,55.46
2023-06-27T02:41:29.997Z,55.48
2023-06-27T02:46:31.596Z,54.00
2023-06-27T02:51:33.180Z,53.76
2023-06-27T02:56:34.684Z,54.15
2023-06-27T03:01:36.230Z,53.85
2023-06-27T03:06:37.771Z,54.42
2023-06-27T03:11:39.276Z,54.72
2023-06-27T03:16:41.052Z,54.63
2023-06-27T03:21:42.724Z,55.82
2023-06-27T03:26:44.514Z,55.41
2023-06-27T03:31:46.118Z,55.40
2023-06-27T03:36:47.672Z,54.39
2023-06-27T03:41:49.182Z,53.85
2023-06-27T03:46:50.895Z,53.61
2023-06-27T03:51:52.400Z,53.30
2023-06-27T03:56:53.908Z,54.08
2023-06-27T04:01:55.423Z,54.25
2023-06-27T04:06:56.961Z,55.01
2023-06-27T04:12:00.646Z,55.06
2023-06-27T04:17:02.227Z,54.79
2023-06-27T04:22:04.119Z,54.17
2023-06-27T04:27:05.705Z,52.74
2023-06-27T04:32:08.563Z,52.41
2023-06-27T04:37:10.068Z,51.24
2023-06-27T04:42:11.612Z,51.07
2023-06-27T04:47:13.133Z,52.23
2023-06-27T04:52:14.631Z,52.48
2023-06-27T04:57:18.509Z,52.60
2023-06-27T05:02:21.268Z,51.69
2023-06-27T05:07:22.833Z,51.37
2023-06-27T05:12:24.363Z,50.90
2023-06-27T05:17:25.918Z,50.64
2023-06-27T05:22:27.580Z,49.84
2023-06-27T05:27:29.106Z,49.42
2023-06-27T05:32:30.677Z,49.82
2023-06-27T05:37:32.201Z,48.27
2023-06-27T05:42:34.028Z,48.56
2023-06-27T05:47:35.555Z,49.36
2023-06-27T05:52:37.147Z,47.89
2023-06-27T05:57:38.675Z,47.17
2023-06-27T06:02:42.585Z,48.38
2023-06-27T06:07:44.988Z,49.20
2023-06-27T06:12:46.535Z,49.04
2023-06-27T06:17:48.137Z,48.84
2023-06-27T06:22:49.698Z,49.03
2023-06-27T06:27:51.230Z,49.18
2023-06-27T06:32:52.766Z,49.00
2023-06-27T06:37:54.853Z,50.05
2023-06-27T06:42:56.315Z,49.20
2023-06-27T06:47:57.858Z,49.52
2023-06-27T06:52:59.428Z,49.50
2023-06-27T06:58:00.943Z,48.82
2023-06-27T07:03:03.269Z,48.61
2023-06-27T07:08:05.199Z,48.61
2023-06-27T07:13:06.849Z,48.76
2023-06-27T07:18:08.390Z,48.41
2023-06-27T07:23:09.906Z,50.08
2023-06-27T07:28:11.436Z,49.46
2023-06-27T07:33:13.681Z,48.71
2023-06-27T07:38:17.623Z,48.78
2023-06-27T07:43:19.163Z,49.04
2023-06-27T07:48:20.729Z,49.84
2023-06-27T07:53:22.240Z,49.12
2023-06-27T07:58:23.795Z,48.04
2023-06-27T08:03:25.990Z,48.33
2023-06-27T08:08:27.635Z,46.94
2023-06-27T08:13:29.183Z,47.02
2023-06-27T08:18:30.853Z,46.81
2023-06-27T08:23:32.475Z,46.08
2023-06-27T08:28:34.131Z,47.03
2023-06-27T08:33:35.666Z,47.47
2023-06-27T08:38:37.285Z,48.90
2023-06-27T08:43:40.212Z,48.08
2023-06-27T08:48:42.996Z,47.47
2023-06-27T08:53:45.500Z,47.15
2023-06-27T08:58:57.107Z,47.67
2023-06-27T09:03:59.655Z,47.25
2023-06-27T09:09:01.301Z,46.71
2023-06-27T09:14:03.175Z,47.54
2023-06-27T09:19:04.577Z,47.26
2023-06-27T09:24:06.849Z,47.17
2023-06-27T09:29:08.402Z,48.12
2023-06-27T09:34:10.710Z,47.99
2023-06-27T09:39:14.048Z,47.21
2023-06-27T09:44:17.104Z,46.31
2023-06-27T09:49:19.256Z,45.65
2023-06-27T09:54:24.108Z,47.07
2023-06-27T09:59:27.435Z,48.24
2023-06-27T10:09:35.468Z,47.49
2023-06-27T10:14:37.122Z,47.38
2023-06-27T10:19:38.666Z,46.23
2023-06-27T10:24:41.837Z,45.34
2023-06-27T10:29:47.267Z,44.50
2023-06-27T10:34:48.849Z,44.95
2023-06-27T10:40:01.473Z,45.02
2023-06-27T10:45:10.299Z,44.38
2023-06-27T10:50:15.899Z,44.86
2023-06-27T10:55:19.489Z,45.51
2023-06-27T11:00:33.258Z,46.76
2023-06-27T11:05:48.449Z,45.09
2023-06-27T11:11:08.944Z,46.28
2023-06-27T11:16:12.486Z,47.13
2023-06-27T11:21:15.793Z,48.07
2023-06-27T11:26:23.911Z,48.72
2023-06-27T11:31:25.448Z,49.23
2023-06-27T11:36:27.238Z,48.19
2023-06-27T11:41:30.797Z,48.06
2023-06-27T11:46:32.340Z,47.14
2023-06-27T11:51:40.373Z,47.08
2023-06-27T11:56:41.888Z,46.64
2023-06-27T12:01:44.363Z,47.07
2023-06-27T12:06:47.753Z,46.76
2023-06-27T12:11:53.186Z,47.43
2023-06-27T12:17:01.370Z,46.89
2023-06-27T12:22:02.773Z,45.51
2023-06-27T12:27:07.182Z,44.34
2023-06-27T12:32:08.688Z,43.21
2023-06-27T12:37:13.023Z,41.85
2023-06-27T12:42:14.531Z,41.12
2023-06-27T12:47:15.905Z,40.41
2023-06-27T12:52:17.424Z,39.65
2023-06-27T12:57:20.150Z,40.47
2023-06-27T13:02:22.223Z,41.81
2023-06-27T13:07:23.902Z,40.06
2023-06-27T13:12:25.433Z,41.42
2023-06-27T13:17:27.023Z,41.58
2023-06-27T13:22:28.563Z,42.36
2023-06-27T13:27:30.239Z,40.89
2023-06-27T13:32:32.529Z,40.64
2023-06-27T13:37:34.398Z,40.80
2023-06-27T13:42:37.501Z,41.95
2023-06-27T13:47:38.935Z,42.00
2023-06-27T13:52:40.640Z,42.63
2023-06-27T13:57:42.141Z,43.16
2023-06-27T14:02:43.725Z,43.45
2023-06-27T14:07:45.208Z,42.09
2023-06-27T14:12:46.727Z,41.52
2023-06-27T14:17:48.782Z,40.97
2023-06-27T14:22:51.259Z,40.08
2023-06-27T14:27:53.111Z,40.71
2023-06-27T14:32:54.821Z,42.10
2023-06-27T14:37:56.541Z,40.99
2023-06-27T14:42:58.093Z,42.70
2023-06-27T14:47:59.829Z,44.25
2023-06-27T14:53:01.263Z,44.47
2023-06-27T14:58:02.815Z,45.35
2023-06-27T15:03:04.431Z,44.94
2023-06-27T15:08:06.079Z,45.27
2023-06-27T15:13:07.632Z,44.23
2023-06-27T15:18:09.172Z,43.11
2023-06-27T15:23:10.728Z,42.62
2023-06-27T15:28:12.898Z,42.91
2023-06-27T15:33:14.288Z,42.72
2023-06-27T15:38:16.219Z,41.52
2023-06-27T15:43:17.828Z,41.31
2023-06-27T15:48:19.359Z,40.30
2023-06-27T15:53:20.883Z,36.82
2023-06-27T15:58:22.388Z,38.27
2023-06-27T16:03:24.094Z,40.34
2023-06-27T16:08:25.757Z,42.43
2023-06-27T16:13:27.261Z,44.62
2023-06-27T16:18:28.783Z,45.32
2023-06-27T16:23:30.309Z,47.57
2023-06-27T16:28:31.810Z,48.37
2023-06-27T16:33:33.361Z,48.91
2023-06-27T16:38:34.882Z,48.69
2023-06-27T16:43:36.444Z,47.84
2023-06-27T16:48:37.950Z,47.94
2023-06-27T16:53:39.554Z,47.12
2023-06-27T16:58:41.082Z,47.06
2023-06-27T17:03:42.790Z,47.95
2023-06-27T17:08:44.607Z,48.59
2023-06-27T17:13:49.023Z,49.57
2023-06-27T17:18:50.959Z,49.46
2023-06-27T17:23:53.090Z,49.49
2023-06-27T17:28:54.606Z,49.89
2023-06-27T17:33:56.119Z,50.06
2023-06-27T17:38:58.885Z,50.28
2023-06-27T17:44:00.384Z,50.37
2023-06-27T17:49:01.905Z,50.14
2023-06-27T17:54:03.417Z,50.63
2023-06-27T17:59:04.919Z,51.10
2023-06-27T18:04:06.446Z,50.88
2023-06-27T18:09:07.977Z,51.42
2023-06-27T18:14:09.543Z,50.68
2023-06-27T18:19:11.088Z,50.95
2023-06-27T18:24:12.631Z,50.44
2023-06-27T18:29:14.204Z,50.80
2023-06-27T18:34:16.165Z,51.51
2023-06-27T18:39:17.841Z,51.89
2023-06-27T18:44:19.390Z,50.43
2023-06-27T18:49:20.897Z,50.02
2023-06-27T18:54:22.406Z,50.35
2023-06-27T18:59:23.915Z,50.82
2023-06-27T19:04:26.694Z,50.83
2023-06-27T19:09:29.285Z,50.54
2023-06-27T19:14:30.814Z,51.22
2023-06-27T19:19:32.327Z,51.65
2023-06-27T19:24:34.365Z,52.22
2023-06-27T19:29:35.878Z,51.37
2023-06-27T19:34:37.390Z,51.99
2023-06-27T19:39:38.930Z,51.99
2023-06-27T19:44:40.440Z,51.80
2023-06-27T19:49:42.136Z,51.83
2023-06-27T19:54:43.678Z,52.74
2023-06-27T19:59:45.222Z,52.74
2023-06-27T20:04:46.815Z,53.26
2023-06-27T20:09:48.381Z,53.47
2023-06-27T20:14:49.916Z,53.23
2023-06-27T20:19:51.432Z,53.50
2023-06-27T20:24:53.031Z,52.97
2023-06-27T20:29:54.563Z,53.26
2023-06-27T20:34:56.070Z,52.83
2023-06-27T20:39:58.552Z,53.02
2023-06-27T20:45:00.066Z,52.84
2023-06-27T20:50:01.610Z,53.22
2023-06-27T20:55:03.154Z,52.94
2023-06-27T21:00:05.084Z,53.02
2023-06-27T21:05:07.063Z,53.85
2023-06-27T21:10:08.895Z,53.88
2023-06-27T21:15:10.460Z,54.48
2023-06-27T21:20:12.254Z,53.77
2023-06-27T21:25:14.451Z,53.46
2023-06-27T21:30:15.962Z,53.81
2023-06-27T21:35:17.484Z,53.79
2023-06-27T21:40:19.021Z,53.57
2023-06-27T21:45:20.560Z,53.19
2023-06-27T21:50:22.949Z,52.96
2023-06-27T21:55:24.469Z,53.76
2023-06-27T22:00:26.063Z,53.22
2023-06-27T22:05:27.594Z,53.56
2023-06-27T22:10:29.100Z,53.25
2023-06-27T22:15:30.592Z,53.69
2023-06-27T22:20:32.122Z,53.71
2023-06-27T22:25:34.794Z,53.19
2023-06-27T22:30:36.320Z,53.56
2023-06-27T22:35:37.856Z,53.88
2023-06-27T22:40:40.163Z,53.64
2023-06-27T22:45:42.028Z,53.81
2023-06-27T22:50:43.805Z,54.17
2023-06-27T22:55:45.564Z,53.97
2023-06-27T23:00:47.115Z,53.53
2023-06-27T23:05:50.182Z,53.75
2023-06-27T23:10:51.922Z,53.55
2023-06-27T23:15:53.668Z,52.97
2023-06-27T23:20:56.803Z,54.18
2023-06-27T23:26:00.154Z,55.02
2023-06-27T23:31:06.281Z,55.45
2023-06-27T23:36:07.953Z,55.80
2023-06-27T23:41:09.476Z,55.12
2023-06-27T23:46:11.216Z,55.45
2023-06-27T23:51:12.772Z,56.05
2023-06-27T23:56:14.334Z,55.88
